createdAt,value
2023-01-23T00:01:03.421Z,31.88
2023-01-23T00:04:05.880Z,30.25
2023-01-23T00:07:07.745Z,28.13
2023-01-23T00:10:12.107Z,29.13
2023-01-23T00:13:13.950Z,33.40
2023-01-23T00:16:17.524Z,33.65
2023-01-23T00:19:19.507Z,29.25
2023-01-23T00:22:21.565Z,23.98
2023-01-23T00:25:24.781Z,22.08
2023-01-23T00:28:26.501Z,20.75
2023-01-23T00:31:30.388Z,28.92
2023-01-23T00:34:32.225Z,27.60
2023-01-23T00:37:33.961Z,29.92
2023-01-23T00:40:37.103Z,29.27
2023-01-23T00:43:38.889Z,28.13
2023-01-23T00:46:40.740Z,32.13
2023-01-23T00:49:42.605Z,32.65
2023-01-23T00:52:44.397Z,31.92
2023-01-23T00:55:47.731Z,31.20
2023-01-23T00:58:49.526Z,29.33
2023-01-23T01:01:51.295Z,32.22
2023-01-23T01:04:53.127Z,30.95
2023-01-23T01:07:54.852Z,31.42
2023-01-23T01:10:58.347Z,29.73
2023-01-23T01:14:00.135Z,31.50
2023-01-23T01:17:01.934Z,34.80
2023-01-23T01:20:04.577Z,36.33
2023-01-23T01:23:06.353Z,32.65
2023-01-23T01:26:10.528Z,40.03
2023-01-23T01:29:12.330Z,47.97
2023-01-23T01:32:14.148Z,37.55
2023-01-23T01:35:15.932Z,41.50
2023-01-23T01:38:17.714Z,33.13
2023-01-23T01:41:20.952Z,31.35
2023-01-23T01:44:24.413Z,31.35
2023-01-23T01:47:26.737Z,31.63
2023-01-23T01:50:28.639Z,35.78
2023-01-23T01:53:32.326Z,30.08
2023-01-23T01:56:39.661Z,32.72
2023-01-23T01:59:46.683Z,31.90
2023-01-23T02:02:51.433Z,26.92
2023-01-23T02:05:53.370Z,30.25
2023-01-23T02:09:01.798Z,27.55
2023-01-23T02:12:05.231Z,29.30
2023-01-23T02:15:08.401Z,29.10
2023-01-23T02:18:10.182Z,26.08
2023-01-23T02:21:14.041Z,27.25
2023-01-23T02:24:23.695Z,29.02
2023-01-23T02:27:26.839Z,27.10
2023-01-23T02:30:28.716Z,28.75
2023-01-23T02:33:49.419Z,32.22
2023-01-23T02:36:51.391Z,34.35
2023-01-23T02:39:53.227Z,36.42
2023-01-23T02:42:56.803Z,36.72
2023-01-23T02:45:58.625Z,38.30
2023-01-23T02:49:00.391Z,38.55
2023-01-23T02:52:02.231Z,36.53
2023-01-23T02:55:04.557Z,34.80
2023-01-23T02:58:07.881Z,35.45
2023-01-23T03:01:10.276Z,35.13
2023-01-23T03:04:12.091Z,39.83
2023-01-23T03:07:13.894Z,34.80
2023-01-23T03:10:16.113Z,39.15
2023-01-23T03:13:19.273Z,36.92
2023-01-23T03:16:21.088Z,38.83
2023-01-23T03:19:25.181Z,34.28
2023-01-23T03:22:26.960Z,34.95
2023-01-23T03:25:28.707Z,35.08
2023-01-23T03:28:31.857Z,33.45
2023-01-23T03:31:33.637Z,35.58
2023-01-23T03:34:36.131Z,35.88
2023-01-23T03:37:37.904Z,32.88
2023-01-23T03:40:39.710Z,34.47
2023-01-23T03:43:42.917Z,37.78
2023-01-23T03:46:44.748Z,34.65
2023-01-23T03:49:46.720Z,32.65
2023-01-23T03:52:48.463Z,33.10
2023-01-23T03:55:50.243Z,33.53
2023-01-23T03:58:53.435Z,34.75
2023-01-23T04:01:55.203Z,35.10
2023-01-23T04:04:57.001Z,32.90
2023-01-23T04:07:58.736Z,30.90
2023-01-23T04:11:05.364Z,35.10
2023-01-23T04:14:08.493Z,36.10
2023-01-23T04:17:11.230Z,34.67
2023-01-23T04:20:13.757Z,35.42
2023-01-23T04:23:15.539Z,38.15
2023-01-23T04:26:17.299Z,38.05
2023-01-23T04:29:20.633Z,34.42
2023-01-23T04:32:22.403Z,35.00
2023-01-23T04:35:24.350Z,34.47
2023-01-23T04:38:28.419Z,37.10
2023-01-23T04:41:32.419Z,37.38
2023-01-23T04:44:35.577Z,35.28
2023-01-23T04:47:37.372Z,34.90
2023-01-23T04:50:39.768Z,33.80
2023-01-23T04:53:41.517Z,36.33
2023-01-23T04:56:43.552Z,33.92
2023-01-23T04:59:46.738Z,34.85
2023-01-23T05:02:49.287Z,34.28
2023-01-23T05:05:51.127Z,32.53
2023-01-23T05:08:52.912Z,31.50
2023-01-23T05:11:54.672Z,35.92
2023-01-23T05:14:57.849Z,34.72
2023-01-23T05:17:59.619Z,32.28
2023-01-23T05:21:01.439Z,34.30
2023-01-23T05:24:03.265Z,37.63
2023-01-23T05:27:05.292Z,37.38
2023-01-23T05:30:10.192Z,36.53
2023-01-23T05:33:12.031Z,40.00
2023-01-23T05:36:13.827Z,38.28
2023-01-23T05:39:15.602Z,38.58
2023-01-23T05:42:17.399Z,39.03
2023-01-23T05:45:20.519Z,41.08
2023-01-23T05:48:23.042Z,38.08
2023-01-23T05:51:24.842Z,40.67
2023-01-23T05:54:26.648Z,40.53
2023-01-23T05:57:28.397Z,42.85
2023-01-23T06:00:31.588Z,39.03
2023-01-23T06:03:33.645Z,38.80
2023-01-23T06:06:35.484Z,37.55
2023-01-23T06:09:37.277Z,38.90
2023-01-23T06:12:39.036Z,38.65
2023-01-23T06:15:42.245Z,39.60
2023-01-23T06:18:44.072Z,42.13
2023-01-23T06:21:45.818Z,37.05
2023-01-23T06:24:47.635Z,42.30
2023-01-23T06:27:49.430Z,41.60
2023-01-23T06:30:52.695Z,36.40
2023-01-23T06:33:54.555Z,39.00
2023-01-23T06:36:56.362Z,36.53
2023-01-23T06:39:58.223Z,37.83
2023-01-23T06:43:00.019Z,32.80
2023-01-23T06:46:03.167Z,36.65
2023-01-23T06:49:06.402Z,33.88
2023-01-23T06:52:08.244Z,35.38
2023-01-23T06:55:13.831Z,35.88
2023-01-23T06:58:16.563Z,35.05
2023-01-23T07:01:19.866Z,34.28
2023-01-23T07:04:22.538Z,36.33
2023-01-23T07:07:24.670Z,34.78
2023-01-23T07:10:28.397Z,38.80
2023-01-23T07:13:30.265Z,42.30
2023-01-23T07:16:33.447Z,55.92
2023-01-23T07:19:35.342Z,47.00
2023-01-23T07:22:37.167Z,41.80
2023-01-23T07:25:39.575Z,95.65
2023-01-23T07:28:41.364Z,46.10
2023-01-23T07:31:44.623Z,40.38
2023-01-23T07:34:46.664Z,36.95
2023-01-23T07:37:48.566Z,37.38
2023-01-23T07:40:50.514Z,39.15
2023-01-23T07:43:52.406Z,37.20
2023-01-23T07:46:56.500Z,37.22
2023-01-23T07:49:58.380Z,38.15
2023-01-23T07:53:00.189Z,36.60
2023-01-23T07:56:04.778Z,35.20
2023-01-23T07:59:06.741Z,38.13
2023-01-23T08:02:10.611Z,33.58
2023-01-23T08:05:13.510Z,35.80
2023-01-23T08:08:16.797Z,36.50
2023-01-23T08:11:19.767Z,32.22
2023-01-23T08:14:21.988Z,33.53
2023-01-23T08:17:25.319Z,45.40
2023-01-23T08:20:27.298Z,31.15
2023-01-23T08:23:31.779Z,32.13
2023-01-23T08:26:35.978Z,33.20
2023-01-23T08:29:37.918Z,31.17
2023-01-23T08:32:41.168Z,26.92
2023-01-23T08:35:49.174Z,30.30
2023-01-23T08:38:51.434Z,26.63
2023-01-23T08:41:53.287Z,31.65
2023-01-23T08:44:55.566Z,34.50
2023-01-23T08:47:58.795Z,32.80
2023-01-23T08:51:03.206Z,29.35
2023-01-23T08:54:05.325Z,28.35
2023-01-23T08:57:07.617Z,29.38
2023-01-23T09:00:11.453Z,30.58
2023-01-23T09:03:15.279Z,29.63
2023-01-23T09:06:21.858Z,35.92
2023-01-23T09:09:23.647Z,41.95
2023-01-23T09:12:25.905Z,34.75
2023-01-23T09:15:28.926Z,34.25
2023-01-23T09:18:32.529Z,30.92
2023-01-23T09:21:34.489Z,32.78
2023-01-23T09:24:36.316Z,33.67
2023-01-23T09:27:38.329Z,34.97
2023-01-23T09:30:40.647Z,39.88
2023-01-23T09:33:44.039Z,38.83
2023-01-23T09:36:45.830Z,41.35
2023-01-23T09:39:48.085Z,41.00
2023-01-23T09:42:51.572Z,43.10
2023-01-23T09:46:02.372Z,44.50
2023-01-23T09:49:14.091Z,40.40
2023-01-23T09:52:19.556Z,49.67
2023-01-23T09:55:28.884Z,58.63
2023-01-23T09:58:37.474Z,48.40
2023-01-23T10:01:40.475Z,44.85
2023-01-23T10:04:43.931Z,46.88
2023-01-23T10:07:59.007Z,45.65
2023-01-23T10:11:07.671Z,49.33
2023-01-23T10:14:29.880Z,49.58
2023-01-23T10:17:39.123Z,45.63
2023-01-23T10:21:04.731Z,52.13
2023-01-23T10:24:23.734Z,51.00
2023-01-23T10:27:33.806Z,51.45
2023-01-23T10:30:37.338Z,48.88
2023-01-23T10:33:47.295Z,50.17
2023-01-23T10:37:06.067Z,51.22
2023-01-23T10:40:12.941Z,54.90
2023-01-23T10:43:16.686Z,52.13
2023-01-23T10:46:21.475Z,50.58
2023-01-23T10:49:32.560Z,48.38
2023-01-23T10:52:38.259Z,51.65
2023-01-23T10:55:45.435Z,47.20
2023-01-23T10:58:48.619Z,52.25
2023-01-23T11:01:59.938Z,48.78
2023-01-23T11:05:03.331Z,48.80
2023-01-23T11:08:23.731Z,49.05
2023-01-23T11:11:27.264Z,49.17
2023-01-23T11:14:29.993Z,50.97
2023-01-23T11:17:33.768Z,52.70
2023-01-23T11:20:37.394Z,56.63
2023-01-23T11:23:40.608Z,58.55
2023-01-23T11:26:42.381Z,59.15
2023-01-23T11:30:02.356Z,56.20
2023-01-23T11:33:13.819Z,55.63
2023-01-23T11:36:32.007Z,55.20
2023-01-23T11:39:45.863Z,55.95
2023-01-23T11:42:48.634Z,58.35
2023-01-23T11:46:06.383Z,55.00
2023-01-23T11:49:23.109Z,56.15
2023-01-23T11:52:38.189Z,57.88
2023-01-23T11:55:53.016Z,52.15
2023-01-23T11:59:25.221Z,52.80
2023-01-23T12:02:58.114Z,53.72
2023-01-23T12:06:20.246Z,48.92
2023-01-23T12:09:25.604Z,47.10
2023-01-23T12:12:44.921Z,47.85
2023-01-23T12:16:07.911Z,51.22
2023-01-23T12:19:21.739Z,54.75
2023-01-23T12:22:28.444Z,54.03
2023-01-23T12:25:35.404Z,53.03
2023-01-23T12:28:54.685Z,54.35
2023-01-23T12:32:21.417Z,59.90
2023-01-23T12:35:33.833Z,59.75
2023-01-23T12:38:46.060Z,60.55
2023-01-23T12:41:52.137Z,61.00
2023-01-23T12:45:03.051Z,64.80
2023-01-23T12:48:10.715Z,62.83
2023-01-23T12:51:21.383Z,62.63
2023-01-23T12:54:33.318Z,63.88
2023-01-23T12:57:46.129Z,63.05
2023-01-23T13:01:15.564Z,61.75
2023-01-23T13:04:36.985Z,59.72
2023-01-23T13:07:51.617Z,59.15
2023-01-23T13:11:04.882Z,67.15
2023-01-23T13:14:17.540Z,70.30
2023-01-23T13:17:35.720Z,63.25
2023-01-23T13:20:52.846Z,60.65
2023-01-23T13:24:25.262Z,57.20
2023-01-23T13:27:48.828Z,55.30
2023-01-23T13:31:24.196Z,56.35
2023-01-23T13:34:37.918Z,54.75
2023-01-23T13:37:49.570Z,48.80
2023-01-23T13:41:24.385Z,54.35
2023-01-23T13:44:40.993Z,54.28
2023-01-23T14:24:22.292Z,46.83
2023-01-23T14:27:30.639Z,43.38
2023-01-23T14:30:32.964Z,42.40
2023-01-23T14:33:44.980Z,43.20
2023-01-23T14:36:52.327Z,39.97
2023-01-23T14:39:59.853Z,44.15
2023-01-23T14:43:05.063Z,36.33
2023-01-23T14:46:15.205Z,40.85
2023-01-23T14:49:24.198Z,39.08
2023-01-23T14:52:32.143Z,39.70
2023-01-23T14:55:39.392Z,32.45
2023-01-23T14:58:42.224Z,35.45
2023-01-23T15:01:53.462Z,35.50
2023-01-23T15:05:09.548Z,51.40
2023-01-23T15:08:21.005Z,40.67
2023-01-23T15:11:29.103Z,31.42
2023-01-23T15:14:36.491Z,25.57
2023-01-23T15:17:45.227Z,33.67
2023-01-23T15:20:53.923Z,39.92
2023-01-23T15:24:05.904Z,43.00
2023-01-23T15:27:24.097Z,35.78
2023-01-23T15:30:40.594Z,34.63
2023-01-23T15:33:42.446Z,35.38
2023-01-23T15:36:48.041Z,31.63
2023-01-23T15:39:54.004Z,30.00
2023-01-23T15:43:05.919Z,26.52
2023-01-23T15:46:10.420Z,31.88
2023-01-23T15:49:24.435Z,26.92
2023-01-23T15:52:29.236Z,28.48
2023-01-23T15:55:31.262Z,35.63
2023-01-23T15:58:34.491Z,30.75
2023-01-23T16:01:36.428Z,31.67
2023-01-23T16:04:38.389Z,27.33
2023-01-23T16:07:44.005Z,37.22
2023-01-23T16:10:47.466Z,37.30
2023-01-23T16:13:51.110Z,26.08
2023-01-23T16:16:53.005Z,26.92
2023-01-23T16:19:54.960Z,24.90
2023-01-23T16:23:01.906Z,23.55
2023-01-23T16:26:16.730Z,25.73
2023-01-23T16:29:27.311Z,25.38
2023-01-23T16:32:29.556Z,24.38
2023-01-23T16:35:32.036Z,23.85
2023-01-23T16:38:34.633Z,24.92
2023-01-23T16:41:37.111Z,24.08
2023-01-23T16:44:40.498Z,28.52
2023-01-23T16:47:42.811Z,23.73
2023-01-23T16:50:50.056Z,25.35
2023-01-23T16:53:55.946Z,24.42
2023-01-23T16:56:58.554Z,22.00
2023-01-23T17:00:02.506Z,22.58
2023-01-23T17:03:09.270Z,29.08
2023-01-23T17:06:13.759Z,26.05
2023-01-23T17:09:16.320Z,28.25
2023-01-23T17:12:25.704Z,34.00
2023-01-23T17:15:31.580Z,30.98
2023-01-23T17:18:37.066Z,31.38
2023-01-23T17:21:39.672Z,38.95
2023-01-23T17:24:42.620Z,29.55
2023-01-23T17:27:51.885Z,36.42
2023-01-23T17:31:01.266Z,34.55
2023-01-23T17:34:04.420Z,35.78
2023-01-23T17:37:18.770Z,36.50
2023-01-23T17:40:21.118Z,48.05
2023-01-23T17:43:24.446Z,32.15
2023-01-23T17:46:35.559Z,43.17
2023-01-23T17:49:39.252Z,38.05
2023-01-23T17:52:41.906Z,40.33
2023-01-23T17:55:44.832Z,36.30
2023-01-23T17:58:49.666Z,35.38
2023-01-23T18:01:54.473Z,34.38
2023-01-23T18:04:59.314Z,38.05
2023-01-23T18:08:03.660Z,34.92
2023-01-23T18:11:10.118Z,33.30
2023-01-23T18:14:38.119Z,29.25
2023-01-23T18:17:49.056Z,37.25
2023-01-23T18:20:52.911Z,33.55
2023-01-23T18:23:56.152Z,34.47
2023-01-23T18:27:01.643Z,31.05
2023-01-23T18:30:23.769Z,31.15
2023-01-23T18:34:00.746Z,34.63
2023-01-23T18:37:17.603Z,38.35
2023-01-23T18:40:27.722Z,34.63
2023-01-23T18:43:36.491Z,34.15
2023-01-23T18:49:45.295Z,37.03
2023-01-23T18:52:55.210Z,36.78
2023-01-23T18:56:10.995Z,35.67
2023-01-23T18:59:23.701Z,34.60
2023-01-23T19:02:36.516Z,33.97
2023-01-23T19:05:41.825Z,35.85
2023-01-23T19:08:45.661Z,34.75
2023-01-23T19:12:02.628Z,36.35
2023-01-23T19:15:24.707Z,38.13
2023-01-23T19:18:44.735Z,38.30
2023-01-23T19:21:50.621Z,35.28
2023-01-23T19:24:55.270Z,36.55
2023-01-23T19:28:00.805Z,37.97
2023-01-23T19:31:05.415Z,37.40
2023-01-23T19:34:08.659Z,31.63
2023-01-23T19:37:13.726Z,35.80
2023-01-23T19:40:17.957Z,39.90
2023-01-23T19:43:21.892Z,38.60
2023-01-23T19:46:28.932Z,38.70
2023-01-23T19:49:34.157Z,36.05
2023-01-23T19:52:42.006Z,37.40
2023-01-23T19:55:45.613Z,38.50
2023-01-23T19:58:49.644Z,45.13
2023-01-23T20:01:56.082Z,37.47
2023-01-23T20:04:58.748Z,39.22
2023-01-23T20:08:03.591Z,40.15
2023-01-23T20:11:06.712Z,36.90
2023-01-23T20:14:10.101Z,35.42
2023-01-23T20:17:14.166Z,39.00
2023-01-23T20:20:19.151Z,43.22
2023-01-23T20:23:24.271Z,38.63
2023-01-23T20:26:27.715Z,38.58
2023-01-23T20:29:30.752Z,41.80
2023-01-23T20:32:34.327Z,38.53
2023-01-23T20:35:39.969Z,35.50
2023-01-23T20:38:45.122Z,47.67
2023-01-23T20:41:49.976Z,44.75
2023-01-23T20:44:53.407Z,44.00
2023-01-23T20:47:57.508Z,49.63
2023-01-23T20:51:00.185Z,43.05
2023-01-23T20:54:04.953Z,38.15
2023-01-23T20:57:07.876Z,37.08
2023-01-23T21:00:12.015Z,40.90
2023-01-23T21:03:14.779Z,45.90
2023-01-23T21:06:18.716Z,39.63
2023-01-23T21:09:24.027Z,42.72
2023-01-23T21:12:26.724Z,39.10
2023-01-23T21:15:29.978Z,36.20
2023-01-23T21:18:35.690Z,35.05
2023-01-23T21:21:38.934Z,35.00
2023-01-23T21:24:42.420Z,34.05
2023-01-23T21:27:45.485Z,34.38
2023-01-23T21:30:48.521Z,33.30
2023-01-23T21:33:51.462Z,32.45
2023-01-23T21:36:53.897Z,35.80
2023-01-23T21:39:58.586Z,36.83
2023-01-23T21:43:00.712Z,37.85
2023-01-23T21:46:03.286Z,37.67
2023-01-23T21:49:05.305Z,37.05
2023-01-23T21:52:07.298Z,38.97
2023-01-23T21:55:10.594Z,43.88
2023-01-23T21:58:13.077Z,45.25
2023-01-23T22:01:17.511Z,38.42
2023-01-23T22:04:21.243Z,44.90
2023-01-23T22:07:24.487Z,47.22
2023-01-23T22:10:28.003Z,41.10
2023-01-23T22:13:29.921Z,42.47
2023-01-23T22:16:47.545Z,45.45
2023-01-23T22:19:50.758Z,33.57
2023-01-23T22:22:52.559Z,50.95
2023-01-23T22:25:58.880Z,48.00
2023-01-23T22:29:00.746Z,48.72
2023-01-23T22:32:02.801Z,46.65
2023-01-23T22:35:06.301Z,42.80
2023-01-23T22:38:09.767Z,38.58
2023-01-23T22:41:14.364Z,39.40
2023-01-23T22:44:16.835Z,42.00
2023-01-23T22:47:18.890Z,40.20
2023-01-23T22:50:21.035Z,35.35
2023-01-23T22:53:22.964Z,36.65
2023-01-23T22:56:27.182Z,35.92
2023-01-23T22:59:29.472Z,31.40
2023-01-23T23:02:31.800Z,31.50
2023-01-23T23:05:34.140Z,29.23
2023-01-23T23:08:36.100Z,29.42
2023-01-23T23:11:40.999Z,33.30
2023-01-23T23:14:43.110Z,31.13
2023-01-23T23:17:44.913Z,29.27
2023-01-23T23:20:47.330Z,28.60
2023-01-23T23:23:49.353Z,30.20
2023-01-23T23:26:52.746Z,32.95
2023-01-23T23:29:54.613Z,32.47
2023-01-23T23:32:56.525Z,28.90
2023-01-23T23:35:58.588Z,30.80
2023-01-23T23:39:01.037Z,33.20
2023-01-23T23:42:04.717Z,29.70
2023-01-23T23:45:07.356Z,29.23
2023-01-23T23:48:09.652Z,26.85
2023-01-23T23:51:13.961Z,28.67
2023-01-23T23:54:16.232Z,26.25
2023-01-23T23:57:19.882Z,25.90
